Aviation Digital Data Service (ADDS)

Output produced by TAFs form (1259 UTC 19 January 2018)
found at http://aviationweather.gov/adds/tafs/
 
ELLX 191250Z 25011KT 9999 SCT015 BKN040 03/01 Q1010 NOSIG
TAF ELLX 191100Z 1912/2018 24010KT 9999 SCT011 BKN020 
     TEMPO 1912/1918 4500 -SHSN BKN015 
     TEMPO 2000/2005 26010G20KT 4500 -SHSN 
     BECMG 2007/2010 20010G20KT 4000 -SN SCT003 BKN007 
     TEMPO 2011/2016 1000 SN BKN003 
     BECMG 2016/2018 23015G30KT 6000 -RA